createdAt,value
2018-01-10T00:05:11.030Z,30.20
2018-01-10T00:11:14.561Z,39.93
2018-01-10T00:17:18.342Z,29.20
2018-01-10T00:23:21.909Z,35.00
2018-01-10T00:29:25.990Z,40.07
2018-01-10T00:35:29.462Z,42.27
2018-01-10T00:41:33.013Z,31.83
2018-01-10T00:47:37.257Z,37.17
2018-01-10T00:53:40.871Z,36.17
2018-01-10T00:59:45.218Z,31.87
2018-01-10T01:05:48.683Z,39.17
2018-01-10T01:11:52.275Z,37.40
2018-01-10T01:17:56.086Z,35.13
2018-01-10T01:23:59.592Z,44.87
2018-01-10T01:30:03.049Z,42.20
2018-01-10T01:36:06.722Z,41.60
2018-01-10T01:42:10.193Z,43.90
2018-01-10T01:48:13.698Z,45.73
2018-01-10T01:54:18.043Z,43.70
2018-01-10T02:00:21.910Z,48.37
2018-01-10T02:06:27.073Z,43.33
2018-01-10T02:12:30.706Z,41.30
2018-01-10T02:18:34.357Z,34.17
2018-01-10T02:24:37.935Z,40.07
2018-01-10T02:30:42.231Z,40.70
2018-01-10T02:36:45.910Z,36.17
2018-01-10T02:42:49.442Z,35.97
2018-01-10T02:48:52.972Z,34.17
2018-01-10T02:54:57.087Z,33.97
2018-01-10T03:01:00.769Z,32.77
2018-01-10T03:07:05.408Z,38.80
2018-01-10T03:13:09.037Z,31.90
2018-01-10T03:19:12.787Z,30.30
2018-01-10T03:25:16.486Z,35.00
2018-01-10T03:31:19.910Z,35.40
2018-01-10T03:37:23.474Z,31.63
2018-01-10T03:43:27.228Z,33.87
2018-01-10T03:49:30.708Z,36.10
2018-01-10T03:55:34.517Z,40.03
2018-01-10T04:01:38.987Z,43.67
2018-01-10T04:07:43.330Z,47.40
2018-01-10T04:13:46.953Z,44.80
2018-01-10T04:19:50.433Z,41.30
2018-01-10T04:25:54.164Z,45.93
2018-01-10T04:31:58.334Z,40.37
2018-01-10T04:38:02.198Z,44.17
2018-01-10T04:44:05.747Z,37.63
2018-01-10T04:50:09.434Z,40.80
2018-01-10T04:56:13.168Z,43.13
2018-01-10T05:02:16.621Z,40.20
2018-01-10T05:08:21.075Z,37.23
2018-01-10T05:14:25.660Z,39.90
2018-01-10T05:20:29.591Z,41.03
2018-01-10T05:26:34.430Z,43.27
2018-01-10T05:32:37.908Z,35.97
2018-01-10T05:38:41.401Z,38.30
2018-01-10T05:44:44.865Z,39.40
2018-01-10T05:50:48.393Z,45.27
2018-01-10T05:56:52.640Z,39.67
2018-01-10T06:02:56.741Z,47.10
2018-01-10T06:09:00.370Z,45.10
2018-01-10T06:15:05.446Z,39.23
2018-01-10T06:21:08.938Z,52.70
2018-01-10T06:27:12.462Z,45.67
2018-01-10T06:33:16.067Z,45.87
2018-01-10T06:39:19.540Z,54.13
2018-01-10T06:45:23.091Z,48.97
2018-01-10T06:51:26.853Z,47.60
2018-01-10T06:57:30.389Z,42.03
2018-01-10T07:03:33.987Z,43.60
2018-01-10T07:09:37.588Z,37.33
2018-01-10T07:15:42.006Z,39.03
2018-01-10T07:21:45.551Z,39.03
2018-01-10T07:27:49.049Z,35.87
2018-01-10T07:33:52.623Z,48.97
2018-01-10T07:52:56.274Z,43.57
2018-01-10T07:58:59.772Z,43.20
2018-01-10T08:05:03.760Z,42.00
2018-01-10T08:11:07.229Z,40.60
2018-01-10T08:17:10.657Z,40.80
2018-01-10T08:23:14.114Z,33.93
2018-01-10T08:29:18.506Z,35.33
2018-01-10T08:35:21.998Z,34.37
2018-01-10T08:41:25.565Z,32.40
2018-01-10T08:47:29.171Z,38.17
2018-01-10T08:53:32.671Z,32.70
2018-01-10T08:59:36.172Z,31.17
2018-01-10T09:05:39.629Z,36.73
2018-01-10T09:11:43.059Z,29.70
2018-01-10T09:17:47.311Z,34.17
2018-01-10T09:23:50.791Z,35.27
2018-01-10T09:29:55.433Z,32.40
2018-01-10T09:35:59.284Z,29.20
2018-01-10T09:42:02.859Z,38.03
2018-01-10T09:48:06.445Z,33.87
2018-01-10T09:54:10.666Z,32.13
2018-01-10T10:00:14.194Z,31.87
2018-01-10T10:06:17.665Z,27.23
2018-01-10T10:12:21.164Z,28.83
2018-01-10T10:18:24.720Z,23.20
2018-01-10T10:24:29.730Z,30.93
2018-01-10T10:30:34.104Z,30.83
2018-01-10T10:36:38.348Z,28.90
2018-01-10T10:42:41.945Z,27.77
2018-01-10T10:48:46.150Z,29.13
2018-01-10T10:54:49.678Z,35.23
2018-01-10T11:00:53.144Z,26.67
2018-01-10T11:06:56.688Z,27.70
2018-01-10T11:13:00.370Z,22.20
2018-01-10T11:19:03.894Z,22.53
2018-01-10T11:25:07.463Z,22.67
2018-01-10T11:31:10.943Z,24.00
2018-01-10T11:37:14.439Z,19.03
2018-01-10T11:43:18.662Z,16.40
2018-01-10T11:49:22.336Z,20.60
2018-01-10T11:55:26.703Z,20.90
2018-01-10T12:01:30.259Z,19.27
2018-01-10T12:07:33.818Z,20.40
2018-01-10T12:13:37.298Z,16.63
2018-01-10T12:19:41.636Z,18.13
2018-01-10T12:25:45.232Z,14.03
2018-01-10T12:31:48.761Z,18.77
2018-01-10T12:37:52.366Z,12.07
2018-01-10T12:43:56.492Z,12.60
2018-01-10T12:49:59.990Z,11.67
2018-01-10T12:56:03.495Z,10.73
2018-01-10T13:02:06.967Z,9.80
2018-01-10T13:08:10.431Z,8.30
2018-01-10T13:14:14.870Z,7.60
2018-01-10T13:20:18.368Z,11.30
2018-01-10T13:26:21.824Z,7.43
2018-01-10T13:32:25.808Z,11.20
2018-01-10T13:38:29.640Z,8.80
2018-01-10T13:44:33.854Z,8.73
2018-01-10T13:50:37.361Z,8.43
2018-01-10T13:56:41.597Z,5.77
2018-01-10T14:02:45.073Z,9.87
2018-01-10T14:08:48.670Z,5.63
2018-01-10T14:14:52.196Z,8.53
2018-01-10T14:20:56.432Z,5.03
2018-01-10T14:27:00.609Z,10.90
2018-01-10T14:33:04.067Z,6.57
2018-01-10T14:39:07.724Z,7.43
2018-01-10T14:45:11.224Z,6.50
2018-01-10T14:51:14.679Z,10.20
2018-01-10T14:57:18.152Z,5.33
2018-01-10T15:03:21.640Z,6.43
2018-01-10T15:09:26.489Z,5.40
2018-01-10T15:15:30.369Z,6.70
2018-01-10T15:21:33.949Z,7.57
2018-01-10T15:27:37.468Z,5.57
2018-01-10T15:33:40.920Z,4.40
2018-01-10T15:39:44.398Z,7.00
2018-01-10T15:45:47.831Z,6.10
2018-01-10T15:51:51.428Z,8.40
2018-01-10T15:57:56.095Z,6.80
2018-01-10T16:03:59.555Z,6.00
2018-01-10T16:10:03.002Z,7.63
2018-01-10T16:16:06.500Z,6.63
2018-01-10T16:22:10.086Z,6.90
2018-01-10T16:28:13.569Z,8.30
2018-01-10T16:34:17.014Z,12.00
2018-01-10T16:40:20.559Z,7.90
2018-01-10T16:46:24.013Z,5.50
2018-01-10T16:52:27.606Z,12.70
2018-01-10T16:58:31.962Z,7.43
2018-01-10T17:04:35.433Z,7.17
2018-01-10T17:10:39.653Z,5.83
2018-01-10T17:16:43.093Z,7.40
2018-01-10T17:22:46.590Z,14.13
2018-01-10T17:28:50.265Z,12.07
2018-01-10T17:34:54.832Z,15.53
2018-01-10T17:40:58.536Z,11.30
2018-01-10T17:47:01.995Z,11.93
2018-01-10T17:53:05.490Z,12.07
2018-01-10T17:59:08.948Z,10.43
2018-01-10T18:05:12.630Z,14.00
2018-01-10T18:11:16.835Z,16.43
2018-01-10T18:17:20.332Z,15.27
2018-01-10T18:23:24.068Z,14.13
2018-01-10T18:29:27.751Z,21.40
2018-01-10T18:35:31.264Z,23.27
2018-01-10T18:41:34.687Z,18.80
2018-01-10T18:47:38.918Z,21.50
2018-01-10T18:53:42.487Z,23.13
2018-01-10T18:59:46.003Z,20.73
2018-01-10T19:05:49.478Z,22.13
2018-01-10T19:11:52.987Z,23.73
2018-01-10T19:17:56.594Z,29.97
2018-01-10T19:24:00.139Z,23.03
2018-01-10T19:30:03.678Z,27.57
2018-01-10T19:36:07.125Z,29.80
2018-01-10T19:42:10.645Z,30.60
2018-01-10T19:48:14.925Z,24.87
2018-01-10T19:54:19.121Z,37.20
2018-01-10T20:00:22.614Z,37.77
2018-01-10T20:06:26.878Z,38.00
2018-01-10T20:12:30.322Z,33.43
2018-01-10T20:18:33.917Z,35.37
2018-01-10T20:24:38.156Z,33.73
2018-01-10T20:30:41.631Z,32.73
2018-01-10T20:36:45.093Z,43.20
2018-01-10T20:42:49.358Z,37.13
2018-01-10T20:48:52.797Z,31.97
2018-01-10T20:54:56.282Z,33.70
2018-01-10T21:00:59.900Z,33.77
2018-01-10T21:07:03.534Z,23.80
2018-01-10T21:13:07.864Z,21.73
2018-01-10T21:19:12.095Z,21.57
2018-01-10T21:25:15.582Z,20.37
2018-01-10T21:31:19.143Z,28.03
2018-01-10T21:37:23.355Z,27.47
2018-01-10T21:43:26.864Z,25.97
2018-01-10T21:49:31.086Z,27.80
2018-01-10T21:55:34.546Z,24.07
2018-01-10T22:01:38.042Z,25.27
2018-01-10T22:07:42.314Z,30.23
2018-01-10T22:13:46.524Z,28.90
2018-01-10T22:19:50.040Z,28.33
2018-01-10T22:25:54.434Z,27.00
2018-01-10T22:31:57.986Z,26.10
2018-01-10T22:38:01.441Z,56.73
2018-01-10T22:44:04.891Z,36.03
2018-01-10T22:50:08.417Z,34.90
2018-01-10T22:56:11.843Z,38.30
2018-01-10T23:02:16.231Z,36.27
2018-01-10T23:08:20.802Z,37.73
2018-01-10T23:14:24.371Z,34.37
2018-01-10T23:20:28.407Z,37.20
2018-01-10T23:26:32.147Z,37.33
2018-01-10T23:32:36.390Z,29.20
2018-01-10T23:38:40.613Z,38.17
2018-01-10T23:44:44.050Z,30.73
2018-01-10T23:50:47.542Z,33.93
2018-01-10T23:56:51.499Z,40.67
